sensor_id;sensor_type;location;lat;lon;timestamp;temperature;humidity
780;DHT22;373;49.342;8.146;2024-03-08T00:00:18;7.20;1.00
780;DHT22;373;49.342;8.146;2024-03-08T00:02:45;7.20;1.00
780;DHT22;373;49.342;8.146;2024-03-08T00:05:14;6.90;99.90
780;DHT22;373;49.342;8.146;2024-03-08T00:07:42;6.80;1.00
780;DHT22;373;49.342;8.146;2024-03-08T00:10:10;7.00;1.00
780;DHT22;373;49.342;8.146;2024-03-08T00:12:37;6.80;1.00
780;DHT22;373;49.342;8.146;2024-03-08T00:15:08;6.80;1.00
780;DHT22;373;49.342;8.146;2024-03-08T00:17:36;6.80;1.00
780;DHT22;373;49.342;8.146;2024-03-08T00:20:04;6.80;1.00
780;DHT22;373;49.342;8.146;2024-03-08T00:22:35;6.70;1.00
780;DHT22;373;49.342;8.146;2024-03-08T00:25:02;6.80;1.00
780;DHT22;373;49.342;8.146;2024-03-08T00:27:30;6.70;99.90
780;DHT22;373;49.342;8.146;2024-03-08T00:29:57;6.80;1.00
780;DHT22;373;49.342;8.146;2024-03-08T00:32:24;6.80;99.90
780;DHT22;373;49.342;8.146;2024-03-08T00:34:51;6.90;79.40
780;DHT22;373;49.342;8.146;2024-03-08T00:37:18;6.60;99.90
780;DHT22;373;49.342;8.146;2024-03-08T00:39:47;6.60;1.00
780;DHT22;373;49.342;8.146;2024-03-08T00:42:15;6.60;99.90
780;DHT22;373;49.342;8.146;2024-03-08T00:44:42;6.80;99.90
780;DHT22;373;49.342;8.146;2024-03-08T00:47:09;6.60;99.90
780;DHT22;373;49.342;8.146;2024-03-08T00:49:37;6.50;99.90
780;DHT22;373;49.342;8.146;2024-03-08T00:52:04;6.60;1.00
780;DHT22;373;49.342;8.146;2024-03-08T00:54:33;6.70;99.90
780;DHT22;373;49.342;8.146;2024-03-08T00:57:03;7.00;99.90
780;DHT22;373;49.342;8.146;2024-03-08T00:59:30;6.80;54.30
780;DHT22;373;49.342;8.146;2024-03-08T01:01:58;6.50;99.90
780;DHT22;373;49.342;8.146;2024-03-08T01:04:26;6.70;99.90
780;DHT22;373;49.342;8.146;2024-03-08T01:06:54;6.90;99.90
780;DHT22;373;49.342;8.146;2024-03-08T01:09:22;7.20;1.00
780;DHT22;373;49.342;8.146;2024-03-08T01:11:49;7.40;92.30
780;DHT22;373;49.342;8.146;2024-03-08T01:14:17;7.40;99.90
780;DHT22;373;49.342;8.146;2024-03-08T01:16:44;7.60;1.00
780;DHT22;373;49.342;8.146;2024-03-08T01:19:11;7.40;1.00
780;DHT22;373;49.342;8.146;2024-03-08T01:21:39;7.40;1.00
780;DHT22;373;49.342;8.146;2024-03-08T01:24:06;7.40;99.90
780;DHT22;373;49.342;8.146;2024-03-08T01:26:33;7.40;99.90
780;DHT22;373;49.342;8.146;2024-03-08T01:29:00;7.50;99.90
780;DHT22;373;49.342;8.146;2024-03-08T01:31:30;7.60;1.00
780;DHT22;373;49.342;8.146;2024-03-08T01:33:57;7.70;1.00
780;DHT22;373;49.342;8.146;2024-03-08T01:36:24;7.70;1.00
780;DHT22;373;49.342;8.146;2024-03-08T01:38:51;7.60;1.00
780;DHT22;373;49.342;8.146;2024-03-08T01:41:18;7.70;1.00
780;DHT22;373;49.342;8.146;2024-03-08T01:43:46;8.00;99.90
780;DHT22;373;49.342;8.146;2024-03-08T01:46:15;8.20;75.10
780;DHT22;373;49.342;8.146;2024-03-08T01:48:45;8.10;99.90
780;DHT22;373;49.342;8.146;2024-03-08T01:51:12;8.00;99.90
780;DHT22;373;49.342;8.146;2024-03-08T01:53:41;8.00;99.90
780;DHT22;373;49.342;8.146;2024-03-08T01:56:11;7.90;99.90
780;DHT22;373;49.342;8.146;2024-03-08T01:58:41;7.80;99.90
780;DHT22;373;49.342;8.146;2024-03-08T02:01:11;7.70;1.00
780;DHT22;373;49.342;8.146;2024-03-08T02:03:40;7.80;99.90
780;DHT22;373;49.342;8.146;2024-03-08T02:06:11;7.90;99.90
780;DHT22;373;49.342;8.146;2024-03-08T02:08:41;7.90;99.90
780;DHT22;373;49.342;8.146;2024-03-08T02:11:09;7.50;99.90
780;DHT22;373;49.342;8.146;2024-03-08T02:13:37;7.50;9.00
780;DHT22;373;49.342;8.146;2024-03-08T02:16:04;7.50;1.00
780;DHT22;373;49.342;8.146;2024-03-08T02:18:34;7.50;1.00
780;DHT22;373;49.342;8.146;2024-03-08T02:21:03;7.60;99.90
780;DHT22;373;49.342;8.146;2024-03-08T02:23:31;7.60;99.90
780;DHT22;373;49.342;8.146;2024-03-08T02:25:59;7.50;1.00
780;DHT22;373;49.342;8.146;2024-03-08T02:28:26;7.40;1.00
780;DHT22;373;49.342;8.146;2024-03-08T02:30:53;7.60;16.80
780;DHT22;373;49.342;8.146;2024-03-08T02:33:22;7.70;99.90
780;DHT22;373;49.342;8.146;2024-03-08T02:35:49;7.60;99.90
780;DHT22;373;49.342;8.146;2024-03-08T02:38:20;7.50;99.90
780;DHT22;373;49.342;8.146;2024-03-08T02:40:49;7.40;1.00
780;DHT22;373;49.342;8.146;2024-03-08T02:43:17;7.30;1.00
780;DHT22;373;49.342;8.146;2024-03-08T02:45:45;7.20;1.00
780;DHT22;373;49.342;8.146;2024-03-08T02:48:12;7.30;1.00
780;DHT22;373;49.342;8.146;2024-03-08T02:50:40;7.40;99.90
780;DHT22;373;49.342;8.146;2024-03-08T02:53:08;7.20;1.00
780;DHT22;373;49.342;8.146;2024-03-08T02:55:37;7.10;1.00
780;DHT22;373;49.342;8.146;2024-03-08T02:58:04;7.30;1.00
780;DHT22;373;49.342;8.146;2024-03-08T03:00:34;7.30;99.90
780;DHT22;373;49.342;8.146;2024-03-08T03:03:01;7.20;1.00
780;DHT22;373;49.342;8.146;2024-03-08T03:05:29;7.10;1.00
780;DHT22;373;49.342;8.146;2024-03-08T03:07:56;7.20;99.90
780;DHT22;373;49.342;8.146;2024-03-08T03:10:24;7.00;99.90
780;DHT22;373;49.342;8.146;2024-03-08T03:12:52;7.00;1.00
780;DHT22;373;49.342;8.146;2024-03-08T03:15:20;6.80;1.00
780;DHT22;373;49.342;8.146;2024-03-08T03:17:47;6.80;99.90
780;DHT22;373;49.342;8.146;2024-03-08T03:20:14;6.80;99.90
780;DHT22;373;49.342;8.146;2024-03-08T03:22:49;6.80;1.00
780;DHT22;373;49.342;8.146;2024-03-08T03:25:18;6.90;1.00
780;DHT22;373;49.342;8.146;2024-03-08T03:27:53;6.80;1.00
780;DHT22;373;49.342;8.146;2024-03-08T03:30:22;6.80;99.90
780;DHT22;373;49.342;8.146;2024-03-08T03:32:49;6.90;90.80
780;DHT22;373;49.342;8.146;2024-03-08T03:35:17;6.40;1.00
780;DHT22;373;49.342;8.146;2024-03-08T03:37:46;6.40;99.90
780;DHT22;373;49.342;8.146;2024-03-08T03:40:27;6.40;99.90
780;DHT22;373;49.342;8.146;2024-03-08T03:42:55;6.70;99.90
780;DHT22;373;49.342;8.146;2024-03-08T03:45:22;6.70;99.90
780;DHT22;373;49.342;8.146;2024-03-08T03:47:50;6.60;1.00
780;DHT22;373;49.342;8.146;2024-03-08T03:50:17;6.50;99.90
780;DHT22;373;49.342;8.146;2024-03-08T03:52:45;6.80;1.00
780;DHT22;373;49.342;8.146;2024-03-08T03:55:12;6.70;99.90
780;DHT22;373;49.342;8.146;2024-03-08T03:57:39;6.90;99.90
780;DHT22;373;49.342;8.146;2024-03-08T04:00:09;6.70;1.00
780;DHT22;373;49.342;8.146;2024-03-08T04:02:40;6.60;1.00
780;DHT22;373;49.342;8.146;2024-03-08T04:05:08;6.60;1.00
780;DHT22;373;49.342;8.146;2024-03-08T04:07:36;6.40;1.00
780;DHT22;373;49.342;8.146;2024-03-08T04:10:03;6.60;1.00
780;DHT22;373;49.342;8.146;2024-03-08T04:12:31;6.80;99.90
780;DHT22;373;49.342;8.146;2024-03-08T04:14:59;6.70;1.00
780;DHT22;373;49.342;8.146;2024-03-08T04:17:27;6.90;99.90
780;DHT22;373;49.342;8.146;2024-03-08T04:19:54;6.80;99.90
780;DHT22;373;49.342;8.146;2024-03-08T04:22:21;6.90;99.90
780;DHT22;373;49.342;8.146;2024-03-08T04:24:48;6.90;99.90
780;DHT22;373;49.342;8.146;2024-03-08T04:27:15;6.90;99.90
780;DHT22;373;49.342;8.146;2024-03-08T04:29:42;6.80;99.90
780;DHT22;373;49.342;8.146;2024-03-08T04:32:10;6.80;99.90
780;DHT22;373;49.342;8.146;2024-03-08T04:34:40;6.80;99.90
780;DHT22;373;49.342;8.146;2024-03-08T04:37:07;6.50;1.00
780;DHT22;373;49.342;8.146;2024-03-08T04:39:36;6.70;99.90
780;DHT22;373;49.342;8.146;2024-03-08T04:42:05;6.50;1.00
780;DHT22;373;49.342;8.146;2024-03-08T04:44:36;6.70;99.90
780;DHT22;373;49.342;8.146;2024-03-08T04:47:03;6.70;94.90
780;DHT22;373;49.342;8.146;2024-03-08T04:49:31;6.60;1.00
780;DHT22;373;49.342;8.146;2024-03-08T04:52:02;6.70;1.00
780;DHT22;373;49.342;8.146;2024-03-08T04:54:29;6.50;99.90
780;DHT22;373;49.342;8.146;2024-03-08T04:56:57;6.50;1.00
780;DHT22;373;49.342;8.146;2024-03-08T04:59:25;6.60;1.00
780;DHT22;373;49.342;8.146;2024-03-08T05:01:53;6.70;1.00
780;DHT22;373;49.342;8.146;2024-03-08T05:04:20;6.90;1.00
780;DHT22;373;49.342;8.146;2024-03-08T05:06:48;6.80;1.00
780;DHT22;373;49.342;8.146;2024-03-08T05:09:16;6.60;99.90
780;DHT22;373;49.342;8.146;2024-03-08T05:11:45;6.40;99.90
780;DHT22;373;49.342;8.146;2024-03-08T05:14:13;6.30;1.00
780;DHT22;373;49.342;8.146;2024-03-08T05:16:42;6.40;99.90
780;DHT22;373;49.342;8.146;2024-03-08T05:19:09;6.50;1.00
780;DHT22;373;49.342;8.146;2024-03-08T05:21:36;6.30;1.00
780;DHT22;373;49.342;8.146;2024-03-08T05:24:04;6.50;99.90
780;DHT22;373;49.342;8.146;2024-03-08T05:26:32;6.40;12.40
780;DHT22;373;49.342;8.146;2024-03-08T05:28:59;6.40;1.00
780;DHT22;373;49.342;8.146;2024-03-08T05:31:26;6.40;96.20
780;DHT22;373;49.342;8.146;2024-03-08T05:33:54;6.60;1.00
780;DHT22;373;49.342;8.146;2024-03-08T05:36:22;6.40;1.00
780;DHT22;373;49.342;8.146;2024-03-08T05:38:49;6.50;1.00
780;DHT22;373;49.342;8.146;2024-03-08T05:41:16;6.70;1.00
780;DHT22;373;49.342;8.146;2024-03-08T05:43:46;6.70;1.00
780;DHT22;373;49.342;8.146;2024-03-08T05:46:15;6.60;99.90
780;DHT22;373;49.342;8.146;2024-03-08T05:48:43;6.70;99.90
780;DHT22;373;49.342;8.146;2024-03-08T05:51:10;6.70;99.90
780;DHT22;373;49.342;8.146;2024-03-08T05:53:38;6.60;1.00
780;DHT22;373;49.342;8.146;2024-03-08T05:56:06;6.30;99.90
780;DHT22;373;49.342;8.146;2024-03-08T05:58:35;6.30;1.00
780;DHT22;373;49.342;8.146;2024-03-08T06:01:03;6.30;99.90
780;DHT22;373;49.342;8.146;2024-03-08T06:03:33;6.40;1.00
780;DHT22;373;49.342;8.146;2024-03-08T06:06:00;6.60;1.00
780;DHT22;373;49.342;8.146;2024-03-08T06:08:28;6.70;1.00
780;DHT22;373;49.342;8.146;2024-03-08T06:10:56;6.50;99.90
780;DHT22;373;49.342;8.146;2024-03-08T06:13:24;6.50;1.00
780;DHT22;373;49.342;8.146;2024-03-08T06:15:51;6.30;1.00
780;DHT22;373;49.342;8.146;2024-03-08T06:18:20;6.60;1.00
780;DHT22;373;49.342;8.146;2024-03-08T06:20:47;6.70;28.20
780;DHT22;373;49.342;8.146;2024-03-08T06:23:14;7.20;1.00
780;DHT22;373;49.342;8.146;2024-03-08T06:25:43;7.10;99.90
780;DHT22;373;49.342;8.146;2024-03-08T06:28:10;7.40;99.90
780;DHT22;373;49.342;8.146;2024-03-08T06:30:37;7.30;99.90
780;DHT22;373;49.342;8.146;2024-03-08T06:33:04;7.40;19.00
780;DHT22;373;49.342;8.146;2024-03-08T06:35:33;7.50;98.20
780;DHT22;373;49.342;8.146;2024-03-08T06:38:03;7.60;90.00
780;DHT22;373;49.342;8.146;2024-03-08T06:40:30;7.50;1.00
780;DHT22;373;49.342;8.146;2024-03-08T06:42:57;7.80;6.20
780;DHT22;373;49.342;8.146;2024-03-08T06:45:24;8.10;1.00
780;DHT22;373;49.342;8.146;2024-03-08T06:47:51;8.30;1.00
780;DHT22;373;49.342;8.146;2024-03-08T06:50:18;8.10;1.00
780;DHT22;373;49.342;8.146;2024-03-08T06:52:47;8.30;1.00
780;DHT22;373;49.342;8.146;2024-03-08T06:55:21;8.50;1.00
780;DHT22;373;49.342;8.146;2024-03-08T06:57:48;8.60;1.00
780;DHT22;373;49.342;8.146;2024-03-08T07:00:15;8.50;1.00
780;DHT22;373;49.342;8.146;2024-03-08T07:02:46;8.50;1.00
780;DHT22;373;49.342;8.146;2024-03-08T07:05:14;8.40;1.00
780;DHT22;373;49.342;8.146;2024-03-08T07:07:42;8.20;1.00
780;DHT22;373;49.342;8.146;2024-03-08T07:10:10;7.70;1.00
780;DHT22;373;49.342;8.146;2024-03-08T07:12:40;7.90;1.00
780;DHT22;373;49.342;8.146;2024-03-08T07:15:08;7.50;1.00
780;DHT22;373;49.342;8.146;2024-03-08T07:17:39;7.30;1.00
780;DHT22;373;49.342;8.146;2024-03-08T07:20:07;7.60;1.00
780;DHT22;373;49.342;8.146;2024-03-08T07:22:37;7.90;1.00
780;DHT22;373;49.342;8.146;2024-03-08T07:25:05;7.90;1.00
780;DHT22;373;49.342;8.146;2024-03-08T07:27:47;8.20;1.00
780;DHT22;373;49.342;8.146;2024-03-08T07:30:15;8.10;1.00
780;DHT22;373;49.342;8.146;2024-03-08T07:33:04;8.00;1.00
780;DHT22;373;49.342;8.146;2024-03-08T07:35:32;8.30;1.00
780;DHT22;373;49.342;8.146;2024-03-08T07:38:03;7.50;1.00
780;DHT22;373;49.342;8.146;2024-03-08T07:40:31;7.90;1.00
780;DHT22;373;49.342;8.146;2024-03-08T07:42:59;8.30;1.00
780;DHT22;373;49.342;8.146;2024-03-08T07:45:26;8.50;1.00
780;DHT22;373;49.342;8.146;2024-03-08T07:47:53;8.50;1.00
780;DHT22;373;49.342;8.146;2024-03-08T07:50:22;7.90;1.00
780;DHT22;373;49.342;8.146;2024-03-08T07:52:49;8.10;1.00
780;DHT22;373;49.342;8.146;2024-03-08T07:55:16;8.50;1.00
780;DHT22;373;49.342;8.146;2024-03-08T07:57:44;8.70;1.00
780;DHT22;373;49.342;8.146;2024-03-08T08:00:16;8.60;99.90
780;DHT22;373;49.342;8.146;2024-03-08T08:02:44;7.90;1.00
780;DHT22;373;49.342;8.146;2024-03-08T08:05:12;7.80;1.00
780;DHT22;373;49.342;8.146;2024-03-08T08:07:40;7.40;1.00
780;DHT22;373;49.342;8.146;2024-03-08T08:10:09;7.80;1.00
780;DHT22;373;49.342;8.146;2024-03-08T08:12:42;7.90;1.00
780;DHT22;373;49.342;8.146;2024-03-08T08:15:09;8.40;1.00
780;DHT22;373;49.342;8.146;2024-03-08T08:17:38;7.90;1.00
780;DHT22;373;49.342;8.146;2024-03-08T08:20:06;7.90;1.00
780;DHT22;373;49.342;8.146;2024-03-08T08:22:33;8.00;1.00
780;DHT22;373;49.342;8.146;2024-03-08T08:25:01;8.30;1.00
780;DHT22;373;49.342;8.146;2024-03-08T08:27:28;8.30;1.00
780;DHT22;373;49.342;8.146;2024-03-08T08:29:55;8.20;1.00
780;DHT22;373;49.342;8.146;2024-03-08T08:32:22;8.50;1.00
780;DHT22;373;49.342;8.146;2024-03-08T08:34:51;8.90;1.00
780;DHT22;373;49.342;8.146;2024-03-08T08:37:18;8.40;1.00
780;DHT22;373;49.342;8.146;2024-03-08T08:39:45;8.20;1.00
780;DHT22;373;49.342;8.146;2024-03-08T08:42:11;7.50;1.00
780;DHT22;373;49.342;8.146;2024-03-08T08:44:39;7.60;1.00
780;DHT22;373;49.342;8.146;2024-03-08T08:47:06;7.40;1.00
780;DHT22;373;49.342;8.146;2024-03-08T08:49:33;7.00;99.90
780;DHT22;373;49.342;8.146;2024-03-08T08:52:02;6.80;99.90
780;DHT22;373;49.342;8.146;2024-03-08T08:54:29;6.60;99.90
780;DHT22;373;49.342;8.146;2024-03-08T08:56:57;6.70;99.90
780;DHT22;373;49.342;8.146;2024-03-08T08:59:24;7.00;99.90
780;DHT22;373;49.342;8.146;2024-03-08T09:01:51;7.00;99.90
780;DHT22;373;49.342;8.146;2024-03-08T09:04:19;6.80;99.90
780;DHT22;373;49.342;8.146;2024-03-08T09:06:48;6.50;1.00
780;DHT22;373;49.342;8.146;2024-03-08T09:09:17;6.40;32.80
780;DHT22;373;49.342;8.146;2024-03-08T09:11:44;6.50;99.90
780;DHT22;373;49.342;8.146;2024-03-08T09:14:11;6.30;99.90
780;DHT22;373;49.342;8.146;2024-03-08T09:16:40;6.30;1.00
780;DHT22;373;49.342;8.146;2024-03-08T09:19:07;6.40;99.90
780;DHT22;373;49.342;8.146;2024-03-08T09:21:36;6.30;99.90
780;DHT22;373;49.342;8.146;2024-03-08T09:24:05;6.30;99.90
780;DHT22;373;49.342;8.146;2024-03-08T09:26:34;6.60;99.90
780;DHT22;373;49.342;8.146;2024-03-08T09:29:02;6.70;45.50
780;DHT22;373;49.342;8.146;2024-03-08T09:31:29;6.80;99.90
780;DHT22;373;49.342;8.146;2024-03-08T09:33:56;6.80;11.90
780;DHT22;373;49.342;8.146;2024-03-08T09:36:23;6.90;1.00
780;DHT22;373;49.342;8.146;2024-03-08T09:38:50;6.60;1.00
780;DHT22;373;49.342;8.146;2024-03-08T09:41:18;6.50;73.40
780;DHT22;373;49.342;8.146;2024-03-08T09:43:47;6.30;99.90
780;DHT22;373;49.342;8.146;2024-03-08T09:46:15;6.30;99.90
780;DHT22;373;49.342;8.146;2024-03-08T09:48:42;6.30;1.00
780;DHT22;373;49.342;8.146;2024-03-08T09:51:09;6.30;1.00
780;DHT22;373;49.342;8.146;2024-03-08T09:53:40;6.10;1.00
780;DHT22;373;49.342;8.146;2024-03-08T09:56:07;5.90;55.60
780;DHT22;373;49.342;8.146;2024-03-08T09:58:34;6.00;1.00
780;DHT22;373;49.342;8.146;2024-03-08T10:01:21;6.00;99.90
780;DHT22;373;49.342;8.146;2024-03-08T10:03:48;6.20;98.00
780;DHT22;373;49.342;8.146;2024-03-08T10:06:16;6.10;13.60
780;DHT22;373;49.342;8.146;2024-03-08T10:08:43;6.10;99.90
780;DHT22;373;49.342;8.146;2024-03-08T10:11:10;6.10;99.90
780;DHT22;373;49.342;8.146;2024-03-08T10:13:38;6.20;99.90
780;DHT22;373;49.342;8.146;2024-03-08T10:16:06;6.30;1.00
780;DHT22;373;49.342;8.146;2024-03-08T10:18:35;6.30;99.90
780;DHT22;373;49.342;8.146;2024-03-08T10:21:04;6.30;1.00
780;DHT22;373;49.342;8.146;2024-03-08T10:23:31;6.20;1.00
780;DHT22;373;49.342;8.146;2024-03-08T10:26:10;6.20;1.00
780;DHT22;373;49.342;8.146;2024-03-08T10:28:38;6.20;99.90
780;DHT22;373;49.342;8.146;2024-03-08T10:31:05;6.10;1.00
780;DHT22;373;49.342;8.146;2024-03-08T10:33:32;6.00;99.90
780;DHT22;373;49.342;8.146;2024-03-08T10:36:01;5.90;1.00
780;DHT22;373;49.342;8.146;2024-03-08T10:38:31;6.00;99.90
780;DHT22;373;49.342;8.146;2024-03-08T10:41:00;6.10;99.90
780;DHT22;373;49.342;8.146;2024-03-08T10:43:31;6.20;99.90
780;DHT22;373;49.342;8.146;2024-03-08T10:46:13;6.20;1.00
780;DHT22;373;49.342;8.146;2024-03-08T10:48:44;6.10;99.90
780;DHT22;373;49.342;8.146;2024-03-08T10:51:14;6.10;99.90
780;DHT22;373;49.342;8.146;2024-03-08T10:53:42;6.20;54.70
780;DHT22;373;49.342;8.146;2024-03-08T10:56:10;6.30;99.90
780;DHT22;373;49.342;8.146;2024-03-08T10:58:41;6.40;99.90
780;DHT22;373;49.342;8.146;2024-03-08T11:01:10;6.30;1.00
780;DHT22;373;49.342;8.146;2024-03-08T11:03:44;6.30;1.00
780;DHT22;373;49.342;8.146;2024-03-08T11:06:17;6.20;1.00
780;DHT22;373;49.342;8.146;2024-03-08T11:08:44;6.20;1.00
780;DHT22;373;49.342;8.146;2024-03-08T11:11:26;6.30;99.90
780;DHT22;373;49.342;8.146;2024-03-08T11:13:56;6.30;1.00
780;DHT22;373;49.342;8.146;2024-03-08T11:16:37;6.30;1.00
780;DHT22;373;49.342;8.146;2024-03-08T11:19:23;6.30;1.00
780;DHT22;373;49.342;8.146;2024-03-08T11:22:13;6.40;1.00
780;DHT22;373;49.342;8.146;2024-03-08T11:24:47;6.40;99.90
780;DHT22;373;49.342;8.146;2024-03-08T11:27:15;6.50;99.90
780;DHT22;373;49.342;8.146;2024-03-08T11:29:42;6.60;99.90
780;DHT22;373;49.342;8.146;2024-03-08T11:32:11;6.70;99.90
780;DHT22;373;49.342;8.146;2024-03-08T11:34:38;6.70;99.90
780;DHT22;373;49.342;8.146;2024-03-08T11:37:11;6.80;39.30
780;DHT22;373;49.342;8.146;2024-03-08T11:39:39;7.00;1.00
780;DHT22;373;49.342;8.146;2024-03-08T11:42:06;7.10;1.00
780;DHT22;373;49.342;8.146;2024-03-08T11:44:33;7.20;1.00
780;DHT22;373;49.342;8.146;2024-03-08T11:47:01;7.30;1.00
780;DHT22;373;49.342;8.146;2024-03-08T11:49:32;7.20;99.90
780;DHT22;373;49.342;8.146;2024-03-08T11:51:59;7.30;1.00
780;DHT22;373;49.342;8.146;2024-03-08T11:54:28;7.40;1.00
780;DHT22;373;49.342;8.146;2024-03-08T11:56:56;7.40;1.00
780;DHT22;373;49.342;8.146;2024-03-08T11:59:27;7.20;99.90
780;DHT22;373;49.342;8.146;2024-03-08T12:02:02;7.40;99.90
780;DHT22;373;49.342;8.146;2024-03-08T12:04:32;7.30;99.90
780;DHT22;373;49.342;8.146;2024-03-08T12:07:02;7.10;1.00
780;DHT22;373;49.342;8.146;2024-03-08T12:09:35;7.20;1.00
780;DHT22;373;49.342;8.146;2024-03-08T12:12:03;7.30;99.90
780;DHT22;373;49.342;8.146;2024-03-08T12:14:31;7.20;99.90
780;DHT22;373;49.342;8.146;2024-03-08T12:16:59;7.10;1.00
780;DHT22;373;49.342;8.146;2024-03-08T12:19:27;7.40;1.00
780;DHT22;373;49.342;8.146;2024-03-08T12:21:55;7.60;99.90
780;DHT22;373;49.342;8.146;2024-03-08T12:24:22;7.70;99.90
780;DHT22;373;49.342;8.146;2024-03-08T12:26:50;7.80;99.90
780;DHT22;373;49.342;8.146;2024-03-08T12:29:19;7.60;99.90
780;DHT22;373;49.342;8.146;2024-03-08T12:31:50;7.70;99.90
780;DHT22;373;49.342;8.146;2024-03-08T12:34:18;7.70;99.90
780;DHT22;373;49.342;8.146;2024-03-08T12:36:49;7.90;99.90
780;DHT22;373;49.342;8.146;2024-03-08T12:39:19;8.00;99.90
780;DHT22;373;49.342;8.146;2024-03-08T12:41:54;7.90;99.90
780;DHT22;373;49.342;8.146;2024-03-08T12:44:23;8.00;99.90
780;DHT22;373;49.342;8.146;2024-03-08T12:46:50;8.20;76.10
780;DHT22;373;49.342;8.146;2024-03-08T12:49:19;8.50;70.30
780;DHT22;373;49.342;8.146;2024-03-08T12:51:48;8.20;1.00
780;DHT22;373;49.342;8.146;2024-03-08T12:54:15;8.30;1.00
780;DHT22;373;49.342;8.146;2024-03-08T12:56:42;8.50;1.00
780;DHT22;373;49.342;8.146;2024-03-08T12:59:10;8.80;1.00
780;DHT22;373;49.342;8.146;2024-03-08T13:01:37;9.10;1.00
780;DHT22;373;49.342;8.146;2024-03-08T13:04:05;9.50;1.00
780;DHT22;373;49.342;8.146;2024-03-08T13:06:34;9.30;1.00
780;DHT22;373;49.342;8.146;2024-03-08T13:09:01;9.30;1.00
780;DHT22;373;49.342;8.146;2024-03-08T13:11:31;9.50;1.00
780;DHT22;373;49.342;8.146;2024-03-08T13:14:03;9.40;1.00
780;DHT22;373;49.342;8.146;2024-03-08T13:16:32;9.50;1.00
780;DHT22;373;49.342;8.146;2024-03-08T13:19:00;9.30;1.00
780;DHT22;373;49.342;8.146;2024-03-08T13:21:27;9.50;1.00
780;DHT22;373;49.342;8.146;2024-03-08T13:23:56;9.60;1.00
780;DHT22;373;49.342;8.146;2024-03-08T13:26:25;9.30;1.00
780;DHT22;373;49.342;8.146;2024-03-08T13:28:58;9.00;1.00
780;DHT22;373;49.342;8.146;2024-03-08T13:31:25;8.80;1.00
780;DHT22;373;49.342;8.146;2024-03-08T13:33:54;9.20;1.00
780;DHT22;373;49.342;8.146;2024-03-08T13:36:24;9.10;1.00
780;DHT22;373;49.342;8.146;2024-03-08T13:38:55;9.10;1.00
780;DHT22;373;49.342;8.146;2024-03-08T13:41:24;9.20;1.00
780;DHT22;373;49.342;8.146;2024-03-08T13:43:51;9.30;1.00
780;DHT22;373;49.342;8.146;2024-03-08T13:46:21;9.40;1.00
780;DHT22;373;49.342;8.146;2024-03-08T13:48:50;9.80;1.00
780;DHT22;373;49.342;8.146;2024-03-08T13:51:18;9.90;1.00
780;DHT22;373;49.342;8.146;2024-03-08T13:53:48;9.80;1.00
780;DHT22;373;49.342;8.146;2024-03-08T13:56:15;9.90;1.00
780;DHT22;373;49.342;8.146;2024-03-08T13:58:42;9.90;1.00
780;DHT22;373;49.342;8.146;2024-03-08T14:01:09;10.10;99.90
780;DHT22;373;49.342;8.146;2024-03-08T14:03:37;10.20;99.90
780;DHT22;373;49.342;8.146;2024-03-08T14:06:07;10.30;99.90
780;DHT22;373;49.342;8.146;2024-03-08T14:08:36;10.20;99.90
780;DHT22;373;49.342;8.146;2024-03-08T14:11:04;10.10;99.90
780;DHT22;373;49.342;8.146;2024-03-08T14:13:41;10.00;99.90
780;DHT22;373;49.342;8.146;2024-03-08T14:16:08;10.30;99.90
780;DHT22;373;49.342;8.146;2024-03-08T14:18:36;10.20;99.90
780;DHT22;373;49.342;8.146;2024-03-08T14:21:04;10.10;99.90
780;DHT22;373;49.342;8.146;2024-03-08T14:23:31;10.20;1.00
780;DHT22;373;49.342;8.146;2024-03-08T14:25:59;10.40;1.00
780;DHT22;373;49.342;8.146;2024-03-08T14:28:27;10.40;99.90
780;DHT22;373;49.342;8.146;2024-03-08T14:30:54;10.30;99.90
780;DHT22;373;49.342;8.146;2024-03-08T14:33:21;10.40;99.90
780;DHT22;373;49.342;8.146;2024-03-08T14:35:51;10.60;99.90
780;DHT22;373;49.342;8.146;2024-03-08T14:38:18;10.70;99.90
780;DHT22;373;49.342;8.146;2024-03-08T14:40:46;10.80;99.90
780;DHT22;373;49.342;8.146;2024-03-08T14:43:15;10.80;99.90
780;DHT22;373;49.342;8.146;2024-03-08T14:45:42;10.90;99.90
780;DHT22;373;49.342;8.146;2024-03-08T14:48:13;10.80;99.90
780;DHT22;373;49.342;8.146;2024-03-08T14:50:40;10.80;99.90
780;DHT22;373;49.342;8.146;2024-03-08T14:53:09;10.80;99.90
780;DHT22;373;49.342;8.146;2024-03-08T14:55:38;11.00;99.90
780;DHT22;373;49.342;8.146;2024-03-08T14:58:05;11.00;99.90
780;DHT22;373;49.342;8.146;2024-03-08T15:00:33;10.80;99.90
780;DHT22;373;49.342;8.146;2024-03-08T15:03:01;10.90;99.90
780;DHT22;373;49.342;8.146;2024-03-08T15:05:30;10.90;99.90
780;DHT22;373;49.342;8.146;2024-03-08T15:07:58;11.10;99.90
780;DHT22;373;49.342;8.146;2024-03-08T15:10:26;11.00;99.90
780;DHT22;373;49.342;8.146;2024-03-08T15:12:54;10.80;99.90
780;DHT22;373;49.342;8.146;2024-03-08T15:15:24;10.70;99.90
780;DHT22;373;49.342;8.146;2024-03-08T15:17:53;10.80;99.90
780;DHT22;373;49.342;8.146;2024-03-08T15:20:23;10.70;99.90
780;DHT22;373;49.342;8.146;2024-03-08T15:22:51;10.70;99.90
780;DHT22;373;49.342;8.146;2024-03-08T15:25:20;10.90;99.90
780;DHT22;373;49.342;8.146;2024-03-08T15:27:51;11.00;99.90
780;DHT22;373;49.342;8.146;2024-03-08T15:30:19;11.10;99.90
780;DHT22;373;49.342;8.146;2024-03-08T15:32:48;10.90;99.90
780;DHT22;373;49.342;8.146;2024-03-08T15:35:17;10.90;99.90
780;DHT22;373;49.342;8.146;2024-03-08T15:37:44;11.00;99.90
780;DHT22;373;49.342;8.146;2024-03-08T15:40:12;11.10;99.90
780;DHT22;373;49.342;8.146;2024-03-08T15:42:48;11.10;99.90
780;DHT22;373;49.342;8.146;2024-03-08T15:45:16;11.10;99.90
780;DHT22;373;49.342;8.146;2024-03-08T15:47:43;11.10;99.90
780;DHT22;373;49.342;8.146;2024-03-08T15:50:11;11.10;99.90
780;DHT22;373;49.342;8.146;2024-03-08T15:52:43;11.20;99.90
780;DHT22;373;49.342;8.146;2024-03-08T15:55:14;11.20;99.90
780;DHT22;373;49.342;8.146;2024-03-08T15:57:45;11.10;99.90
780;DHT22;373;49.342;8.146;2024-03-08T16:00:15;11.10;99.90
780;DHT22;373;49.342;8.146;2024-03-08T16:02:59;11.10;99.90
780;DHT22;373;49.342;8.146;2024-03-08T16:05:28;11.20;99.90
780;DHT22;373;49.342;8.146;2024-03-08T16:07:57;11.10;99.90
780;DHT22;373;49.342;8.146;2024-03-08T16:10:25;11.20;99.90
780;DHT22;373;49.342;8.146;2024-03-08T16:12:52;11.20;99.90
780;DHT22;373;49.342;8.146;2024-03-08T16:15:19;11.00;99.90
780;DHT22;373;49.342;8.146;2024-03-08T16:17:47;11.00;99.90
780;DHT22;373;49.342;8.146;2024-03-08T16:20:15;10.90;99.90
780;DHT22;373;49.342;8.146;2024-03-08T16:22:43;10.90;99.90
780;DHT22;373;49.342;8.146;2024-03-08T16:25:12;10.90;99.90
780;DHT22;373;49.342;8.146;2024-03-08T16:27:40;11.00;99.90
780;DHT22;373;49.342;8.146;2024-03-08T16:30:08;11.10;99.90
780;DHT22;373;49.342;8.146;2024-03-08T16:32:42;10.90;99.90
780;DHT22;373;49.342;8.146;2024-03-08T16:35:09;10.90;99.90
780;DHT22;373;49.342;8.146;2024-03-08T16:37:37;10.80;99.90
780;DHT22;373;49.342;8.146;2024-03-08T16:40:06;10.70;99.90
780;DHT22;373;49.342;8.146;2024-03-08T16:42:43;10.80;99.90
780;DHT22;373;49.342;8.146;2024-03-08T16:45:10;10.90;99.90
780;DHT22;373;49.342;8.146;2024-03-08T16:47:38;10.80;99.90
780;DHT22;373;49.342;8.146;2024-03-08T16:50:06;10.90;99.90
780;DHT22;373;49.342;8.146;2024-03-08T16:52:34;10.90;99.90
780;DHT22;373;49.342;8.146;2024-03-08T16:55:02;10.90;99.90
780;DHT22;373;49.342;8.146;2024-03-08T16:57:32;10.90;99.90
780;DHT22;373;49.342;8.146;2024-03-08T17:00:00;10.90;99.90
780;DHT22;373;49.342;8.146;2024-03-08T17:02:32;11.10;99.90
780;DHT22;373;49.342;8.146;2024-03-08T17:04:59;11.20;99.90